sensor_id;sensor_type;location;lat;lon;timestamp;pressure;altitude;pressure_sealevel;temperature;humidity
19777;BME280;10047;42.490;26.012;2023-11-19T00:01:26;101808.31;;;6.18;100.00
19777;BME280;10047;42.490;26.012;2023-11-19T00:03:52;101791.97;;;5.98;100.00
19777;BME280;10047;42.490;26.012;2023-11-19T00:06:18;101820.13;;;6.19;100.00
19777;BME280;10047;42.490;26.012;2023-11-19T00:08:44;101814.13;;;6.14;100.00
19777;BME280;10047;42.490;26.012;2023-11-19T00:11:09;101739.19;;;5.70;100.00
19777;BME280;10047;42.490;26.012;2023-11-19T00:13:36;101811.03;;;6.27;100.00
19777;BME280;10047;42.490;26.012;2023-11-19T00:16:01;101751.91;;;5.74;100.00
19777;BME280;10047;42.490;26.012;2023-11-19T00:18:29;101776.63;;;5.89;100.00
19777;BME280;10047;42.490;26.012;2023-11-19T00:20:55;101826.94;;;6.22;100.00
19777;BME280;10047;42.490;26.012;2023-11-19T00:23:20;101805.88;;;6.21;100.00
19777;BME280;10047;42.490;26.012;2023-11-19T00:25:46;101768.28;;;5.93;100.00
19777;BME280;10047;42.490;26.012;2023-11-19T00:28:13;101763.91;;;5.84;100.00
19777;BME280;10047;42.490;26.012;2023-11-19T00:30:38;101828.00;;;6.34;100.00
19777;BME280;10047;42.490;26.012;2023-11-19T00:33:05;101839.09;;;6.42;100.00
19777;BME280;10047;42.490;26.012;2023-11-19T00:35:31;101771.63;;;5.92;100.00
19777;BME280;10047;42.490;26.012;2023-11-19T00:37:57;101781.22;;;6.08;100.00
19777;BME280;10047;42.490;26.012;2023-11-19T00:40:23;101838.06;;;6.31;100.00
19777;BME280;10047;42.490;26.012;2023-11-19T00:42:49;101782.94;;;6.10;100.00
19777;BME280;10047;42.490;26.012;2023-11-19T00:45:14;101789.84;;;6.21;100.00
19777;BME280;10047;42.490;26.012;2023-11-19T00:47:40;101794.88;;;6.18;100.00
19777;BME280;10047;42.490;26.012;2023-11-19T00:50:08;101871.59;;;6.67;100.00
19777;BME280;10047;42.490;26.012;2023-11-19T00:52:37;101795.25;;;6.39;100.00
19777;BME280;10047;42.490;26.012;2023-11-19T00:55:03;101826.91;;;6.65;100.00
19777;BME280;10047;42.490;26.012;2023-11-19T00:57:30;101749.69;;;6.34;100.00
19777;BME280;10047;42.490;26.012;2023-11-19T00:59:59;101752.34;;;6.40;100.00
19777;BME280;10047;42.490;26.012;2023-11-19T01:02:24;101812.09;;;6.87;100.00
19777;BME280;10047;42.490;26.012;2023-11-19T01:04:50;101731.59;;;6.58;100.00
19777;BME280;10047;42.490;26.012;2023-11-19T01:07:16;101740.88;;;6.59;100.00
19777;BME280;10047;42.490;26.012;2023-11-19T01:09:42;101676.31;;;6.24;100.00
19777;BME280;10047;42.490;26.012;2023-11-19T01:12:08;101707.59;;;6.32;100.00
19777;BME280;10047;42.490;26.012;2023-11-19T01:14:35;101788.91;;;6.62;100.00
19777;BME280;10047;42.490;26.012;2023-11-19T01:17:01;101785.22;;;6.42;100.00
19777;BME280;10047;42.490;26.012;2023-11-19T01:19:27;101793.56;;;6.38;100.00
19777;BME280;10047;42.490;26.012;2023-11-19T01:21:54;101760.19;;;6.09;100.00
19777;BME280;10047;42.490;26.012;2023-11-19T01:24:20;101780.09;;;6.39;100.00
19777;BME280;10047;42.490;26.012;2023-11-19T01:26:46;101800.25;;;6.36;100.00
19777;BME280;10047;42.490;26.012;2023-11-19T01:29:14;101727.00;;;5.89;100.00
19777;BME280;10047;42.490;26.012;2023-11-19T01:31:45;101731.19;;;5.89;100.00
19777;BME280;10047;42.490;26.012;2023-11-19T01:34:11;101794.91;;;6.21;100.00
19777;BME280;10047;42.490;26.012;2023-11-19T01:36:37;101807.44;;;6.16;100.00
19777;BME280;10047;42.490;26.012;2023-11-19T01:39:03;101810.84;;;6.18;100.00
19777;BME280;10047;42.490;26.012;2023-11-19T01:41:33;101751.28;;;5.84;100.00
19777;BME280;10047;42.490;26.012;2023-11-19T01:43:59;101758.97;;;5.90;100.00
19777;BME280;10047;42.490;26.012;2023-11-19T01:46:24;101712.81;;;5.54;100.00
19777;BME280;10047;42.490;26.012;2023-11-19T01:48:52;101855.06;;;6.40;100.00
19777;BME280;10047;42.490;26.012;2023-11-19T01:51:17;101787.97;;;6.10;100.00
19777;BME280;10047;42.490;26.012;2023-11-19T01:53:43;101850.06;;;6.44;100.00
19777;BME280;10047;42.490;26.012;2023-11-19T01:56:11;101822.44;;;6.52;100.00
19777;BME280;10047;42.490;26.012;2023-11-19T01:58:39;101764.22;;;6.01;100.00
19777;BME280;10047;42.490;26.012;2023-11-19T02:01:06;101767.75;;;6.07;100.00
19777;BME280;10047;42.490;26.012;2023-11-19T02:03:33;101785.03;;;6.33;100.00
19777;BME280;10047;42.490;26.012;2023-11-19T02:05:59;101761.19;;;6.19;100.00
19777;BME280;10047;42.490;26.012;2023-11-19T02:08:25;101831.75;;;6.54;100.00
19777;BME280;10047;42.490;26.012;2023-11-19T02:10:51;101811.50;;;6.51;100.00
19777;BME280;10047;42.490;26.012;2023-11-19T02:13:18;101821.94;;;6.71;100.00
19777;BME280;10047;42.490;26.012;2023-11-19T02:15:44;101783.47;;;6.38;100.00
19777;BME280;10047;42.490;26.012;2023-11-19T02:18:25;101827.03;;;6.72;100.00
19777;BME280;10047;42.490;26.012;2023-11-19T02:20:53;101816.88;;;6.69;100.00
19777;BME280;10047;42.490;26.012;2023-11-19T02:23:20;101689.28;;;5.97;100.00
19777;BME280;10047;42.490;26.012;2023-11-19T02:26:08;101795.03;;;6.74;100.00
19777;BME280;10047;42.490;26.012;2023-11-19T02:28:36;101734.50;;;6.30;100.00
19777;BME280;10047;42.490;26.012;2023-11-19T02:31:02;101785.78;;;6.73;100.00
19777;BME280;10047;42.490;26.012;2023-11-19T02:33:30;101789.13;;;6.74;100.00
19777;BME280;10047;42.490;26.012;2023-11-19T02:35:55;101771.38;;;6.69;100.00
19777;BME280;10047;42.490;26.012;2023-11-19T02:38:21;101709.28;;;6.34;100.00
19777;BME280;10047;42.490;26.012;2023-11-19T02:40:47;101694.88;;;6.27;100.00
19777;BME280;10047;42.490;26.012;2023-11-19T02:43:14;101648.19;;;6.04;100.00
19777;BME280;10047;42.490;26.012;2023-11-19T02:45:40;101741.91;;;6.70;100.00
19777;BME280;10047;42.490;26.012;2023-11-19T02:48:05;101673.09;;;6.34;100.00
19777;BME280;10047;42.490;26.012;2023-11-19T02:50:32;101737.66;;;6.67;100.00
19777;BME280;10047;42.490;26.012;2023-11-19T02:52:57;101605.94;;;5.94;100.00
19777;BME280;10047;42.490;26.012;2023-11-19T02:55:23;101705.63;;;6.68;100.00
19777;BME280;10047;42.490;26.012;2023-11-19T02:57:50;101674.97;;;6.44;100.00
19777;BME280;10047;42.490;26.012;2023-11-19T03:00:20;101709.97;;;6.73;100.00
19777;BME280;10047;42.490;26.012;2023-11-19T03:02:50;101706.47;;;6.67;100.00
19777;BME280;10047;42.490;26.012;2023-11-19T03:05:25;101649.53;;;6.35;100.00
19777;BME280;10047;42.490;26.012;2023-11-19T03:07:51;101582.41;;;5.96;100.00
19777;BME280;10047;42.490;26.012;2023-11-19T03:10:17;101666.66;;;6.52;100.00
19777;BME280;10047;42.490;26.012;2023-11-19T03:12:43;101652.91;;;6.34;100.00
19777;BME280;10047;42.490;26.012;2023-11-19T03:15:11;101659.59;;;6.32;100.00
19777;BME280;10047;42.490;26.012;2023-11-19T03:17:40;101538.94;;;5.65;100.00
19777;BME280;10047;42.490;26.012;2023-11-19T03:20:08;101697.16;;;6.64;100.00
19777;BME280;10047;42.490;26.012;2023-11-19T03:22:43;101625.84;;;6.28;100.00
19777;BME280;10047;42.490;26.012;2023-11-19T03:25:09;101644.59;;;6.41;100.00
19777;BME280;10047;42.490;26.012;2023-11-19T03:27:39;101624.94;;;6.23;100.00
19777;BME280;10047;42.490;26.012;2023-11-19T03:30:10;101691.31;;;6.67;100.00
19777;BME280;10047;42.490;26.012;2023-11-19T03:32:36;101708.13;;;6.65;100.00
19777;BME280;10047;42.490;26.012;2023-11-19T03:35:02;101664.56;;;6.26;100.00
19777;BME280;10047;42.490;26.012;2023-11-19T03:37:30;101678.06;;;6.29;100.00
19777;BME280;10047;42.490;26.012;2023-11-19T03:39:57;101719.81;;;6.58;100.00
19777;BME280;10047;42.490;26.012;2023-11-19T03:42:25;101666.34;;;6.33;100.00
19777;BME280;10047;42.490;26.012;2023-11-19T03:44:52;101667.94;;;6.28;100.00
19777;BME280;10047;42.490;26.012;2023-11-19T03:47:18;101671.16;;;6.19;100.00
19777;BME280;10047;42.490;26.012;2023-11-19T03:49:50;101688.97;;;6.28;100.00
19777;BME280;10047;42.490;26.012;2023-11-19T03:52:17;101706.03;;;6.40;100.00
19777;BME280;10047;42.490;26.012;2023-11-19T03:54:43;101776.41;;;6.68;100.00
19777;BME280;10047;42.490;26.012;2023-11-19T03:57:09;101764.53;;;6.64;100.00
19777;BME280;10047;42.490;26.012;2023-11-19T03:59:37;101810.94;;;6.67;100.00
19777;BME280;10047;42.490;26.012;2023-11-19T04:02:03;101732.63;;;6.20;100.00
19777;BME280;10047;42.490;26.012;2023-11-19T04:04:29;101832.91;;;6.71;100.00
19777;BME280;10047;42.490;26.012;2023-11-19T04:06:57;101878.47;;;6.76;100.00
19777;BME280;10047;42.490;26.012;2023-11-19T04:09:23;101870.72;;;6.65;100.00
19777;BME280;10047;42.490;26.012;2023-11-19T04:11:49;101899.44;;;6.70;100.00
19777;BME280;10047;42.490;26.012;2023-11-19T04:14:14;101920.94;;;6.50;100.00
19777;BME280;10047;42.490;26.012;2023-11-19T04:16:40;101893.84;;;6.03;100.00
19777;BME280;10047;42.490;26.012;2023-11-19T04:19:06;101937.47;;;5.96;100.00
19777;BME280;10047;42.490;26.012;2023-11-19T04:21:32;102035.63;;;6.20;100.00
19777;BME280;10047;42.490;26.012;2023-11-19T04:23:58;102092.44;;;6.38;100.00
19777;BME280;10047;42.490;26.012;2023-11-19T04:26:23;102097.59;;;6.41;100.00
19777;BME280;10047;42.490;26.012;2023-11-19T04:28:49;102129.28;;;6.64;100.00
19777;BME280;10047;42.490;26.012;2023-11-19T04:31:17;102117.50;;;6.65;100.00
19777;BME280;10047;42.490;26.012;2023-11-19T04:33:43;102057.03;;;6.35;100.00
19777;BME280;10047;42.490;26.012;2023-11-19T04:36:10;102017.13;;;6.21;100.00
19777;BME280;10047;42.490;26.012;2023-11-19T04:38:35;102079.44;;;6.57;100.00
19777;BME280;10047;42.490;26.012;2023-11-19T04:41:04;102084.03;;;6.75;100.00
19777;BME280;10047;42.490;26.012;2023-11-19T04:43:31;102107.41;;;6.65;100.00
19777;BME280;10047;42.490;26.012;2023-11-19T04:45:56;102029.13;;;6.31;100.00
19777;BME280;10047;42.490;26.012;2023-11-19T04:48:23;102007.91;;;6.23;100.00
19777;BME280;10047;42.490;26.012;2023-11-19T04:50:48;102109.06;;;6.64;100.00
19777;BME280;10047;42.490;26.012;2023-11-19T04:53:14;102061.63;;;6.51;100.00
19777;BME280;10047;42.490;26.012;2023-11-19T04:55:40;102107.69;;;6.78;100.00
19777;BME280;10047;42.490;26.012;2023-11-19T04:58:06;102029.22;;;6.34;100.00
19777;BME280;10047;42.490;26.012;2023-11-19T05:00:32;102076.31;;;6.69;100.00
19777;BME280;10047;42.490;26.012;2023-11-19T05:02:57;102073.69;;;6.64;100.00
19777;BME280;10047;42.490;26.012;2023-11-19T05:05:23;102104.13;;;6.69;100.00
19777;BME280;10047;42.490;26.012;2023-11-19T05:07:49;102115.00;;;6.66;100.00
19777;BME280;10047;42.490;26.012;2023-11-19T05:10:14;102083.63;;;6.57;100.00
19777;BME280;10047;42.490;26.012;2023-11-19T05:12:40;102100.44;;;6.55;100.00
19777;BME280;10047;42.490;26.012;2023-11-19T05:15:06;102124.31;;;6.67;100.00
19777;BME280;10047;42.490;26.012;2023-11-19T05:17:32;102105.66;;;6.62;100.00
19777;BME280;10047;42.490;26.012;2023-11-19T05:19:58;102091.88;;;6.50;100.00
19777;BME280;10047;42.490;26.012;2023-11-19T05:22:23;102073.81;;;6.33;100.00
19777;BME280;10047;42.490;26.012;2023-11-19T05:24:49;102118.97;;;6.55;100.00
19777;BME280;10047;42.490;26.012;2023-11-19T05:27:14;102142.50;;;6.53;100.00
19777;BME280;10047;42.490;26.012;2023-11-19T05:29:40;102147.50;;;6.51;100.00
19777;BME280;10047;42.490;26.012;2023-11-19T05:32:07;102143.22;;;6.47;100.00
19777;BME280;10047;42.490;26.012;2023-11-19T05:34:32;102084.22;;;6.09;100.00
19777;BME280;10047;42.490;26.012;2023-11-19T05:36:58;102158.72;;;6.62;100.00
19777;BME280;10047;42.490;26.012;2023-11-19T05:39:23;102149.81;;;6.42;100.00
19777;BME280;10047;42.490;26.012;2023-11-19T05:41:49;102151.63;;;6.48;100.00
19777;BME280;10047;42.490;26.012;2023-11-19T05:44:15;102155.44;;;6.66;100.00
19777;BME280;10047;42.490;26.012;2023-11-19T05:46:41;102141.59;;;6.51;100.00
19777;BME280;10047;42.490;26.012;2023-11-19T05:49:08;102144.84;;;6.45;100.00
19777;BME280;10047;42.490;26.012;2023-11-19T05:51:37;102060.91;;;5.87;100.00
19777;BME280;10047;42.490;26.012;2023-11-19T05:54:05;102101.97;;;6.14;100.00
19777;BME280;10047;42.490;26.012;2023-11-19T05:56:32;102153.31;;;6.47;100.00
19777;BME280;10047;42.490;26.012;2023-11-19T05:58:58;102146.69;;;6.52;100.00
19777;BME280;10047;42.490;26.012;2023-11-19T06:01:26;102175.66;;;6.66;100.00
19777;BME280;10047;42.490;26.012;2023-11-19T06:03:52;102097.44;;;6.35;100.00
19777;BME280;10047;42.490;26.012;2023-11-19T06:06:17;102102.47;;;6.34;100.00
19777;BME280;10047;42.490;26.012;2023-11-19T06:08:44;102162.28;;;6.70;100.00
19777;BME280;10047;42.490;26.012;2023-11-19T06:11:10;102160.50;;;6.66;100.00
19777;BME280;10047;42.490;26.012;2023-11-19T06:13:43;102115.03;;;6.32;100.00
19777;BME280;10047;42.490;26.012;2023-11-19T06:16:09;102185.94;;;6.74;100.00
19777;BME280;10047;42.490;26.012;2023-11-19T06:18:36;102179.38;;;6.80;100.00
19777;BME280;10047;42.490;26.012;2023-11-19T06:21:02;102128.06;;;6.49;100.00
19777;BME280;10047;42.490;26.012;2023-11-19T06:23:27;102111.28;;;6.51;100.00
19777;BME280;10047;42.490;26.012;2023-11-19T06:25:52;102169.44;;;6.89;100.00
19777;BME280;10047;42.490;26.012;2023-11-19T06:28:18;102201.66;;;6.98;100.00
19777;BME280;10047;42.490;26.012;2023-11-19T06:30:44;102192.63;;;9.51;100.00
19777;BME280;10047;42.490;26.012;2023-11-19T06:33:12;102409.63;;;10.31;100.00
19777;BME280;10047;42.490;26.012;2023-11-19T06:35:38;102367.44;;;7.57;100.00
19777;BME280;10047;42.490;26.012;2023-11-19T06:38:04;102327.44;;;7.78;100.00
19777;BME280;10047;42.490;26.012;2023-11-19T06:40:35;102334.38;;;7.49;100.00
19777;BME280;10047;42.490;26.012;2023-11-19T06:43:00;102344.38;;;8.22;100.00
19777;BME280;10047;42.490;26.012;2023-11-19T06:45:28;102281.78;;;6.99;100.00
19777;BME280;10047;42.490;26.012;2023-11-19T06:47:53;102362.94;;;7.81;100.00
19777;BME280;10047;42.490;26.012;2023-11-19T06:50:18;102299.81;;;7.13;100.00
19777;BME280;10047;42.490;26.012;2023-11-19T06:52:44;102372.75;;;7.30;100.00
19777;BME280;10047;42.490;26.012;2023-11-19T06:55:10;102372.00;;;7.34;100.00
19777;BME280;10047;42.490;26.012;2023-11-19T06:57:36;102377.09;;;7.36;100.00
19777;BME280;10047;42.490;26.012;2023-11-19T07:00:02;102371.13;;;7.69;100.00
19777;BME280;10047;42.490;26.012;2023-11-19T07:02:30;102284.09;;;7.27;100.00
19777;BME280;10047;42.490;26.012;2023-11-19T07:04:56;102364.53;;;7.76;100.00
19777;BME280;10047;42.490;26.012;2023-11-19T07:07:22;102331.13;;;7.55;100.00
19777;BME280;10047;42.490;26.012;2023-11-19T07:09:47;102387.59;;;7.88;100.00
19777;BME280;10047;42.490;26.012;2023-11-19T07:12:13;102408.91;;;7.98;100.00
19777;BME280;10047;42.490;26.012;2023-11-19T07:14:39;102362.53;;;7.63;100.00
19777;BME280;10047;42.490;26.012;2023-11-19T07:17:05;102358.63;;;7.40;100.00
19777;BME280;10047;42.490;26.012;2023-11-19T07:19:31;102404.53;;;7.55;100.00
19777;BME280;10047;42.490;26.012;2023-11-19T07:21:56;102410.91;;;7.75;100.00
19777;BME280;10047;42.490;26.012;2023-11-19T07:24:22;102421.31;;;7.87;100.00
19777;BME280;10047;42.490;26.012;2023-11-19T07:26:47;102380.22;;;7.61;100.00
19777;BME280;10047;42.490;26.012;2023-11-19T07:29:14;102438.19;;;7.86;100.00
19777;BME280;10047;42.490;26.012;2023-11-19T07:31:42;102405.28;;;7.51;100.00
19777;BME280;10047;42.490;26.012;2023-11-19T07:34:09;102421.88;;;7.74;100.00
19777;BME280;10047;42.490;26.012;2023-11-19T07:36:36;102438.03;;;7.80;100.00
19777;BME280;10047;42.490;26.012;2023-11-19T07:39:01;102432.94;;;7.79;100.00
19777;BME280;10047;42.490;26.012;2023-11-19T07:41:27;102393.31;;;7.79;100.00
19777;BME280;10047;42.490;26.012;2023-11-19T07:43:53;102340.31;;;7.50;100.00
19777;BME280;10047;42.490;26.012;2023-11-19T07:46:19;102344.47;;;7.46;100.00
19777;BME280;10047;42.490;26.012;2023-11-19T07:48:45;102317.53;;;7.14;100.00
19777;BME280;10047;42.490;26.012;2023-11-19T07:51:12;102368.88;;;7.44;100.00
19777;BME280;10047;42.490;26.012;2023-11-19T07:53:39;102391.09;;;7.57;100.00
19777;BME280;10047;42.490;26.012;2023-11-19T07:56:06;102455.00;;;7.83;100.00
19777;BME280;10047;42.490;26.012;2023-11-19T07:58:32;102453.63;;;7.61;100.00
19777;BME280;10047;42.490;26.012;2023-11-19T08:00:57;102445.00;;;7.53;100.00
19777;BME280;10047;42.490;26.012;2023-11-19T08:03:23;102447.06;;;7.68;100.00
19777;BME280;10047;42.490;26.012;2023-11-19T08:05:48;102387.91;;;7.29;100.00
19777;BME280;10047;42.490;26.012;2023-11-19T08:08:14;102373.53;;;7.29;100.00
19777;BME280;10047;42.490;26.012;2023-11-19T08:10:40;102442.91;;;7.71;100.00
19777;BME280;10047;42.490;26.012;2023-11-19T08:13:06;102453.47;;;7.89;100.00
19777;BME280;10047;42.490;26.012;2023-11-19T08:15:32;102427.97;;;7.82;100.00
19777;BME280;10047;42.490;26.012;2023-11-19T08:17:58;102412.91;;;7.88;100.00
19777;BME280;10047;42.490;26.012;2023-11-19T08:20:23;102435.59;;;7.83;100.00
19777;BME280;10047;42.490;26.012;2023-11-19T08:22:49;102380.53;;;7.75;100.00
19777;BME280;10047;42.490;26.012;2023-11-19T08:25:14;102407.28;;;8.01;100.00
19777;BME280;10047;42.490;26.012;2023-11-19T08:27:40;102463.19;;;8.09;100.00
19777;BME280;10047;42.490;26.012;2023-11-19T08:30:06;102452.00;;;7.99;100.00
19777;BME280;10047;42.490;26.012;2023-11-19T08:32:32;102339.59;;;7.20;100.00
19777;BME280;10047;42.490;26.012;2023-11-19T08:34:57;102383.03;;;7.38;100.00
19777;BME280;10047;42.490;26.012;2023-11-19T08:37:23;102416.16;;;7.47;100.00
19777;BME280;10047;42.490;26.012;2023-11-19T08:39:49;102458.25;;;7.77;100.00
19777;BME280;10047;42.490;26.012;2023-11-19T08:42:15;102462.53;;;7.80;100.00
19777;BME280;10047;42.490;26.012;2023-11-19T08:44:41;102442.50;;;7.90;100.00
19777;BME280;10047;42.490;26.012;2023-11-19T08:47:09;102370.72;;;7.51;100.00
19777;BME280;10047;42.490;26.012;2023-11-19T08:49:34;102385.69;;;7.79;100.00
19777;BME280;10047;42.490;26.012;2023-11-19T08:52:00;102350.81;;;7.66;100.00
19777;BME280;10047;42.490;26.012;2023-11-19T08:54:26;102430.31;;;8.12;100.00
19777;BME280;10047;42.490;26.012;2023-11-19T08:56:52;102388.97;;;7.74;100.00
19777;BME280;10047;42.490;26.012;2023-11-19T08:59:17;102424.75;;;8.26;100.00
19777;BME280;10047;42.490;26.012;2023-11-19T09:01:44;102394.03;;;8.14;100.00
19777;BME280;10047;42.490;26.012;2023-11-19T09:04:09;102327.50;;;7.81;100.00
19777;BME280;10047;42.490;26.012;2023-11-19T09:06:36;102372.22;;;8.19;100.00
19777;BME280;10047;42.490;26.012;2023-11-19T09:09:01;102391.41;;;8.48;100.00
19777;BME280;10047;42.490;26.012;2023-11-19T09:11:29;102363.66;;;8.14;100.00
19777;BME280;10047;42.490;26.012;2023-11-19T09:13:55;102283.41;;;7.71;100.00
19777;BME280;10047;42.490;26.012;2023-11-19T09:16:20;102281.69;;;8.12;100.00
19777;BME280;10047;42.490;26.012;2023-11-19T09:18:47;102323.97;;;8.56;100.00
19777;BME280;10047;42.490;26.012;2023-11-19T09:21:12;102294.69;;;8.26;100.00
19777;BME280;10047;42.490;26.012;2023-11-19T09:23:38;102207.25;;;8.04;100.00
19777;BME280;10047;42.490;26.012;2023-11-19T09:26:08;102263.28;;;8.65;100.00
19777;BME280;10047;42.490;26.012;2023-11-19T09:28:33;102260.50;;;9.03;100.00
19777;BME280;10047;42.490;26.012;2023-11-19T09:30:59;102158.84;;;8.35;100.00
19777;BME280;10047;42.490;26.012;2023-11-19T09:33:24;102084.75;;;8.01;100.00
19777;BME280;10047;42.490;26.012;2023-11-19T09:35:51;102174.06;;;8.91;100.00
19777;BME280;10047;42.490;26.012;2023-11-19T09:38:17;102156.22;;;8.85;100.00
19777;BME280;10047;42.490;26.012;2023-11-19T09:40:42;102109.50;;;8.69;100.00
19777;BME280;10047;42.490;26.012;2023-11-19T09:43:08;102088.78;;;8.39;100.00
19777;BME280;10047;42.490;26.012;2023-11-19T09:46:02;102137.31;;;8.63;100.00
19777;BME280;10047;42.490;26.012;2023-11-19T09:48:33;102151.31;;;8.97;100.00
19777;BME280;10047;42.490;26.012;2023-11-19T09:51:00;102131.81;;;8.91;100.00
19777;BME280;10047;42.490;26.012;2023-11-19T09:53:26;102073.66;;;8.43;100.00
19777;BME280;10047;42.490;26.012;2023-11-19T09:55:53;102070.25;;;8.44;100.00
19777;BME280;10047;42.490;26.012;2023-11-19T09:58:19;102132.84;;;9.07;100.00
19777;BME280;10047;42.490;26.012;2023-11-19T10:00:44;102109.00;;;8.96;100.00
19777;BME280;10047;42.490;26.012;2023-11-19T10:03:11;102081.00;;;8.87;100.00
19777;BME280;10047;42.490;26.012;2023-11-19T10:05:37;102042.47;;;9.16;100.00
19777;BME280;10047;42.490;26.012;2023-11-19T10:08:04;102059.63;;;9.40;100.00
19777;BME280;10047;42.490;26.012;2023-11-19T10:10:30;102042.47;;;9.18;100.00
19777;BME280;10047;42.490;26.012;2023-11-19T10:12:56;102030.72;;;9.24;100.00
19777;BME280;10047;42.490;26.012;2023-11-19T10:15:23;102012.34;;;9.48;100.00
19777;BME280;10047;42.490;26.012;2023-11-19T10:17:50;101963.06;;;9.25;100.00
19777;BME280;10047;42.490;26.012;2023-11-19T10:20:16;101890.84;;;8.93;100.00
19777;BME280;10047;42.490;26.012;2023-11-19T10:22:41;101925.16;;;9.46;100.00
19777;BME280;10047;42.490;26.012;2023-11-19T10:25:24;101880.16;;;9.28;100.00
19777;BME280;10047;42.490;26.012;2023-11-19T10:27:50;101794.47;;;8.93;100.00
19777;BME280;10047;42.490;26.012;2023-11-19T10:33:07;101827.09;;;9.60;100.00
19777;BME280;10047;42.490;26.012;2023-11-19T10:35:34;101807.63;;;9.62;100.00
19777;BME280;10047;42.490;26.012;2023-11-19T10:38:01;101728.06;;;9.58;100.00
19777;BME280;10047;42.490;26.012;2023-11-19T10:40:39;101767.91;;;9.79;100.00
19777;BME280;10047;42.490;26.012;2023-11-19T10:43:08;101677.25;;;9.55;100.00
19777;BME280;10047;42.490;26.012;2023-11-19T10:45:37;101727.41;;;10.23;100.00
19777;BME280;10047;42.490;26.012;2023-11-19T10:48:04;101634.97;;;9.68;100.00
19777;BME280;10047;42.490;26.012;2023-11-19T10:50:34;101557.88;;;9.33;100.00
19777;BME280;10047;42.490;26.012;2023-11-19T10:53:00;101573.13;;;9.43;100.00
19777;BME280;10047;42.490;26.012;2023-11-19T10:55:27;101546.94;;;10.05;100.00
19777;BME280;10047;42.490;26.012;2023-11-19T10:58:00;101516.47;;;9.78;100.00
19777;BME280;10047;42.490;26.012;2023-11-19T11:00:51;101576.59;;;10.40;100.00
19777;BME280;10047;42.490;26.012;2023-11-19T11:03:21;101541.88;;;10.26;100.00
19777;BME280;10047;42.490;26.012;2023-11-19T11:05:51;101540.97;;;10.51;100.00
19777;BME280;10047;42.490;26.012;2023-11-19T11:08:18;101520.72;;;9.80;100.00
19777;BME280;10047;42.490;26.012;2023-11-19T11:10:54;101491.06;;;9.87;100.00
19777;BME280;10047;42.490;26.012;2023-11-19T11:13:22;101497.81;;;10.03;100.00
19777;BME280;10047;42.490;26.012;2023-11-19T11:15:52;101480.91;;;9.47;100.00
19777;BME280;10047;42.490;26.012;2023-11-19T11:18:19;101486.81;;;10.04;100.00
19777;BME280;10047;42.490;26.012;2023-11-19T11:20:45;101423.34;;;9.90;100.00
19777;BME280;10047;42.490;26.012;2023-11-19T11:34:43;101277.19;;;10.77;100.00
19777;BME280;10047;42.490;26.012;2023-11-19T11:37:33;101177.34;;;10.56;100.00
19777;BME280;10047;42.490;26.012;2023-11-19T11:40:02;101160.75;;;11.03;100.00
19777;BME280;10047;42.490;26.012;2023-11-19T11:42:32;101150.25;;;11.30;100.00
19777;BME280;10047;42.490;26.012;2023-11-19T11:45:04;101143.31;;;11.45;100.00
19777;BME280;10047;42.490;26.012;2023-11-19T11:50:26;101018.59;;;10.76;100.00
19777;BME280;10047;42.490;26.012;2023-11-19T11:55:35;100994.00;;;10.77;100.00
19777;BME280;10047;42.490;26.012;2023-11-19T11:58:06;100920.31;;;10.72;100.00
19777;BME280;10047;42.490;26.012;2023-11-19T12:00:33;100906.94;;;10.57;100.00
19777;BME280;10047;42.490;26.012;2023-11-19T12:03:06;100916.78;;;10.82;100.00
19777;BME280;10047;42.490;26.012;2023-11-19T12:05:32;100878.59;;;10.84;100.00
19777;BME280;10047;42.490;26.012;2023-11-19T12:08:04;100806.41;;;10.34;100.00
19777;BME280;10047;42.490;26.012;2023-11-19T12:10:36;100920.44;;;11.22;100.00
19777;BME280;10047;42.490;26.012;2023-11-19T12:13:06;100869.91;;;11.50;100.00
19777;BME280;10047;42.490;26.012;2023-11-19T12:18:30;100757.16;;;11.42;100.00
19777;BME280;10047;42.490;26.012;2023-11-19T12:20:59;100708.47;;;11.57;100.00
19777;BME280;10047;42.490;26.012;2023-11-19T12:23:34;100729.81;;;12.31;100.00
19777;BME280;10047;42.490;26.012;2023-11-19T12:25:59;100607.59;;;11.90;100.00
19777;BME280;10047;42.490;26.012;2023-11-19T12:28:25;100654.91;;;12.01;100.00
19777;BME280;10047;42.490;26.012;2023-11-19T12:31:07;100560.53;;;11.69;100.00
19777;BME280;10047;42.490;26.012;2023-11-19T12:33:35;100622.66;;;11.61;100.00
19777;BME280;10047;42.490;26.012;2023-11-19T12:36:01;100562.56;;;12.56;100.00
19777;BME280;10047;42.490;26.012;2023-11-19T12:38:30;100500.56;;;12.54;100.00
19777;BME280;10047;42.490;26.012;2023-11-19T12:41:06;100444.41;;;12.56;100.00
19777;BME280;10047;42.490;26.012;2023-11-19T12:43:32;100436.22;;;12.45;100.00
19777;BME280;10047;42.490;26.012;2023-11-19T12:45:59;100550.06;;;12.78;100.00
19777;BME280;10047;42.490;26.012;2023-11-19T12:48:25;100557.56;;;11.87;100.00
19777;BME280;10047;42.490;26.012;2023-11-19T12:50:55;100608.28;;;12.64;100.00
19777;BME280;10047;42.490;26.012;2023-11-19T12:53:23;100528.16;;;13.00;100.00
19777;BME280;10047;42.490;26.012;2023-11-19T12:55:49;100533.31;;;12.69;100.00
19777;BME280;10047;42.490;26.012;2023-11-19T12:58:34;100543.00;;;12.57;100.00
19777;BME280;10047;42.490;26.012;2023-11-19T13:01:02;100540.25;;;12.93;100.00